Time;durP1;ratioP1;P1;durP2;ratioP2;P2;SDS_P1;SDS_P2;PMS_P1;PMS_P2;Temp;Humidity;BMP_temperature;BMP_pressure;BME280_temperature;BME280_humidity;BME280_pressure;Samples;Min_cycle;Max_cycle;Signal;HPM_P1;HPM_P2
2022/07/22 00:00:53;;;;;;;9.37;5.90;;;19.10;99.90;;;;;;5060877;28;20210;-67
2022/07/22 00:03:19;;;;;;;12.40;7.57;;;19.10;99.90;;;;;;5060304;28;20198;-67
2022/07/22 00:05:46;;;;;;;13.90;6.80;;;19.10;99.90;;;;;;5063014;28;20222;-67
2022/07/22 00:08:13;;;;;;;9.90;6.73;;;19.10;99.90;;;;;;5066683;28;20216;-67
2022/07/22 00:10:40;;;;;;;11.00;6.90;;;19.10;99.90;;;;;;5061826;28;20214;-67
2022/07/22 00:13:07;;;;;;;9.73;6.20;;;19.10;99.90;;;;;;5066064;28;20717;-67
2022/07/22 00:15:34;;;;;;;11.50;6.70;;;19.10;99.90;;;;;;5067077;28;20324;-67
2022/07/22 00:18:01;;;;;;;10.23;6.57;;;19.10;99.90;;;;;;5059510;28;20205;-67
2022/07/22 00:20:28;;;;;;;11.60;7.00;;;19.10;99.90;;;;;;5063032;28;20218;-67
2022/07/22 00:22:55;;;;;;;11.50;6.53;;;19.10;99.90;;;;;;5067171;28;20206;-67
2022/07/22 00:25:22;;;;;;;9.37;6.60;;;19.10;99.90;;;;;;5063173;28;20210;-67
2022/07/22 00:27:48;;;;;;;13.27;7.67;;;19.10;99.90;;;;;;5060036;28;20194;-67
2022/07/22 00:30:15;;;;;;;14.10;6.97;;;19.00;99.90;;;;;;5059237;28;20245;-67
2022/07/22 00:32:42;;;;;;;12.80;7.00;;;19.00;99.90;;;;;;5066976;28;20205;-67
2022/07/22 00:35:08;;;;;;;12.57;7.40;;;18.90;99.90;;;;;;5066343;28;20190;-67
2022/07/22 00:37:35;;;;;;;9.40;6.80;;;18.90;99.90;;;;;;5065704;28;20673;-67
2022/07/22 00:40:03;;;;;;;10.03;6.10;;;18.80;99.90;;;;;;5058716;28;20618;-67
2022/07/22 00:42:29;;;;;;;8.97;6.33;;;18.70;99.90;;;;;;5067498;28;20199;-67
2022/07/22 00:44:56;;;;;;;12.23;7.00;;;18.70;99.90;;;;;;5052540;28;20259;-67
2022/07/22 00:47:23;;;;;;;8.93;6.80;;;18.60;99.90;;;;;;5059699;28;20222;-67
2022/07/22 00:49:50;;;;;;;8.40;6.43;;;18.60;99.90;;;;;;5066279;28;20197;-67
2022/07/22 00:52:19;;;;;;;16.07;7.50;;;18.60;99.90;;;;;;5066520;28;20198;-67
2022/07/22 00:54:45;;;;;;;10.83;6.60;;;18.60;99.90;;;;;;5064188;28;20209;-67
2022/07/22 00:57:12;;;;;;;11.37;7.60;;;18.60;99.90;;;;;;5061751;28;20213;-67
2022/07/22 00:59:39;;;;;;;13.60;7.60;;;18.60;99.90;;;;;;5061065;28;20415;-67
2022/07/22 01:02:06;;;;;;;11.87;7.30;;;18.60;99.90;;;;;;5061146;28;20202;-67
2022/07/22 01:04:33;;;;;;;11.47;6.93;;;18.60;99.90;;;;;;5063723;28;20735;-67
2022/07/22 01:07:00;;;;;;;11.53;6.77;;;18.60;99.90;;;;;;5058741;28;20778;-67
2022/07/22 01:09:26;;;;;;;10.60;7.50;;;18.60;99.90;;;;;;5054302;28;20208;-67
2022/07/22 01:11:53;;;;;;;11.33;7.03;;;18.60;99.90;;;;;;5068050;28;20218;-67
2022/07/22 01:14:20;;;;;;;11.07;7.27;;;18.50;99.90;;;;;;5066158;28;20792;-67
2022/07/22 01:16:46;;;;;;;9.17;6.80;;;18.50;99.90;;;;;;5056975;28;20198;-67
2022/07/22 01:19:15;;;;;;;9.83;7.03;;;18.50;99.90;;;;;;5055939;28;20206;-67
2022/07/22 01:21:42;;;;;;;10.37;6.50;;;18.50;99.90;;;;;;5061362;28;20456;-67
2022/07/22 01:24:09;;;;;;;10.57;6.57;;;18.40;99.90;;;;;;5066905;28;20201;-67
2022/07/22 01:26:36;;;;;;;10.87;7.07;;;18.30;99.90;;;;;;5057493;28;20223;-67
2022/07/22 01:29:03;;;;;;;11.07;7.30;;;18.30;99.90;;;;;;5053886;28;20191;-67
2022/07/22 01:31:30;;;;;;;12.97;7.70;;;18.30;99.90;;;;;;5060202;28;20215;-67
2022/07/22 01:33:57;;;;;;;11.23;6.93;;;18.20;99.90;;;;;;5054226;28;20194;-67
2022/07/22 01:36:23;;;;;;;11.60;7.83;;;18.20;99.90;;;;;;5056050;28;20202;-67
2022/07/22 01:38:50;;;;;;;11.73;7.60;;;18.30;99.90;;;;;;5059592;28;20200;-67
2022/07/22 01:41:17;;;;;;;11.63;7.47;;;18.40;99.90;;;;;;5060509;28;20587;-67
2022/07/22 01:43:43;;;;;;;12.90;7.40;;;18.30;99.90;;;;;;5058677;28;20606;-67
2022/07/22 01:46:10;;;;;;;11.10;7.10;;;18.40;99.90;;;;;;5063902;28;20716;-67
2022/07/22 01:48:37;;;;;;;10.50;7.30;;;18.40;99.90;;;;;;5058163;28;20197;-67
2022/07/22 01:51:04;;;;;;;14.70;7.37;;;18.30;99.90;;;;;;5066221;28;20233;-67
2022/07/22 01:53:30;;;;;;;11.17;7.83;;;18.30;99.90;;;;;;5059125;28;20493;-67
2022/07/22 01:55:57;;;;;;;13.40;7.53;;;18.50;99.90;;;;;;5058748;28;20190;-67
2022/07/22 01:58:24;;;;;;;11.00;7.47;;;18.40;99.90;;;;;;5061767;28;20194;-67
2022/07/22 02:00:52;;;;;;;12.33;7.57;;;18.50;99.90;;;;;;5058499;28;20214;-67
2022/07/22 02:03:18;;;;;;;11.60;7.30;;;18.50;99.90;;;;;;5063777;28;20244;-67
2022/07/22 02:05:45;;;;;;;12.10;7.43;;;18.50;99.90;;;;;;5064469;28;20202;-67
2022/07/22 02:08:13;;;;;;;13.40;7.97;;;18.50;99.90;;;;;;5064786;28;20218;-67
2022/07/22 02:10:40;;;;;;;10.70;7.20;;;18.40;99.90;;;;;;5058744;28;20211;-67
2022/07/22 02:13:07;;;;;;;10.87;7.23;;;18.50;99.90;;;;;;5063684;28;20694;-67
2022/07/22 02:15:33;;;;;;;11.30;6.77;;;18.60;99.90;;;;;;5061624;28;20205;-67
2022/07/22 02:18:08;;;;;;;10.63;7.43;;;18.70;99.90;;;;;;5067577;28;20242;-67
2022/07/22 02:20:35;;;;;;;10.97;7.30;;;18.70;99.90;;;;;;5066275;28;20231;-67
2022/07/22 02:23:02;;;;;;;10.63;6.67;;;18.70;99.90;;;;;;5062145;28;20209;-67
2022/07/22 02:25:28;;;;;;;10.10;6.87;;;18.60;99.90;;;;;;5062851;28;20198;-67
2022/07/22 02:27:55;;;;;;;10.70;6.63;;;18.60;99.90;;;;;;5055905;28;20246;-67
2022/07/22 02:30:22;;;;;;;11.13;7.30;;;18.50;99.90;;;;;;5068015;28;20268;-67
2022/07/22 02:32:48;;;;;;;10.83;7.23;;;18.50;99.90;;;;;;5062516;28;20568;-66
2022/07/22 02:35:15;;;;;;;11.60;7.50;;;18.50;99.90;;;;;;5065084;28;20282;-66
2022/07/22 02:37:42;;;;;;;10.13;7.30;;;18.60;99.90;;;;;;5063291;28;20199;-66
2022/07/22 02:40:10;;;;;;;13.47;7.27;;;18.60;99.90;;;;;;5065081;28;20214;-66
2022/07/22 02:42:37;;;;;;;11.27;7.13;;;18.70;99.90;;;;;;5065056;28;20281;-67
2022/07/22 02:45:04;;;;;;;12.47;7.07;;;18.70;99.90;;;;;;5063314;28;20273;-66
2022/07/22 02:47:31;;;;;;;12.73;7.43;;;18.80;99.90;;;;;;5060959;28;20229;-66
2022/07/22 02:49:58;;;;;;;10.10;7.03;;;18.90;99.90;;;;;;5059826;28;20221;-66
2022/07/22 02:52:24;;;;;;;11.83;7.37;;;18.80;99.90;;;;;;5061187;28;20195;-67
2022/07/22 02:54:51;;;;;;;10.87;7.70;;;19.00;99.90;;;;;;5067295;28;20194;-67
2022/07/22 02:57:18;;;;;;;9.90;7.43;;;19.00;99.90;;;;;;5067489;28;20190;-67
2022/07/22 02:59:45;;;;;;;10.13;7.30;;;19.10;99.90;;;;;;5066003;28;20195;-67
2022/07/22 03:02:11;;;;;;;10.50;7.00;;;19.20;99.90;;;;;;5068399;28;20220;-67
2022/07/22 03:04:38;;;;;;;11.27;7.13;;;19.00;99.90;;;;;;5063207;28;20209;-67
2022/07/22 03:07:05;;;;;;;8.87;6.80;;;19.00;99.90;;;;;;5056880;28;20219;-67
2022/07/22 03:09:31;;;;;;;11.83;7.57;;;19.10;99.90;;;;;;5058126;28;20627;-67
2022/07/22 03:11:58;;;;;;;10.63;7.20;;;19.00;99.90;;;;;;5064340;28;20222;-67
2022/07/22 03:14:25;;;;;;;11.43;7.07;;;19.00;99.90;;;;;;5062876;28;20214;-67
2022/07/22 03:16:51;;;;;;;10.37;6.90;;;19.00;99.90;;;;;;5067076;28;20210;-67
2022/07/22 03:19:18;;;;;;;10.13;6.40;;;19.00;99.90;;;;;;5058767;28;20198;-67
2022/07/22 03:21:45;;;;;;;11.77;7.07;;;18.90;99.90;;;;;;5064176;28;20219;-67
2022/07/22 03:24:11;;;;;;;9.97;6.73;;;18.80;99.90;;;;;;5069976;28;20201;-67
2022/07/22 03:26:38;;;;;;;9.00;6.77;;;18.80;99.90;;;;;;5059091;28;20218;-67
2022/07/22 03:29:05;;;;;;;9.33;6.60;;;18.90;99.90;;;;;;5059697;28;20190;-67
2022/07/22 03:31:31;;;;;;;11.83;7.03;;;18.80;99.90;;;;;;5052244;28;20678;-67
2022/07/22 03:34:00;;;;;;;10.37;6.50;;;18.90;99.90;;;;;;5067745;28;20195;-67
2022/07/22 03:36:28;;;;;;;10.13;6.70;;;18.90;99.90;;;;;;5061719;28;20484;-67
2022/07/22 03:38:56;;;;;;;9.57;6.80;;;18.90;99.90;;;;;;5069446;28;20210;-67
2022/07/22 03:41:23;;;;;;;8.13;6.53;;;19.00;99.90;;;;;;5057771;28;20250;-67
2022/07/22 03:43:50;;;;;;;12.00;7.37;;;18.90;99.90;;;;;;5061902;28;20206;-67
2022/07/22 03:46:17;;;;;;;9.70;7.13;;;18.80;99.90;;;;;;5064989;28;20584;-67
2022/07/22 03:48:43;;;;;;;11.17;6.23;;;18.80;99.90;;;;;;5083033;28;20289;-67
2022/07/22 03:51:10;;;;;;;11.57;6.70;;;18.90;99.90;;;;;;5058361;28;20227;-67
2022/07/22 03:53:37;;;;;;;10.67;6.83;;;18.90;99.90;;;;;;5061045;28;20205;-67
2022/07/22 03:56:04;;;;;;;8.50;6.37;;;18.90;99.90;;;;;;5066738;28;20206;-67
2022/07/22 03:58:30;;;;;;;9.60;6.73;;;18.90;99.90;;;;;;5061149;28;20201;-67
2022/07/22 04:00:57;;;;;;;9.47;6.40;;;19.00;99.90;;;;;;5055162;28;20218;-67
2022/07/22 04:03:24;;;;;;;9.60;6.80;;;19.00;99.90;;;;;;5058621;28;20198;-67
2022/07/22 04:05:51;;;;;;;10.67;6.40;;;19.00;99.90;;;;;;5062182;28;20194;-67
2022/07/22 04:08:18;;;;;;;11.53;6.70;;;19.10;99.90;;;;;;5062356;28;20218;-67
2022/07/22 04:10:45;;;;;;;10.17;7.17;;;19.10;99.90;;;;;;5066981;28;20808;-67
2022/07/22 04:13:12;;;;;;;10.53;6.83;;;19.10;99.90;;;;;;5055570;28;20187;-67
2022/07/22 04:15:38;;;;;;;9.60;6.50;;;19.20;99.90;;;;;;5050435;28;20585;-67
2022/07/22 04:18:05;;;;;;;9.90;6.67;;;19.30;99.90;;;;;;5062855;28;20201;-67
2022/07/22 04:20:32;;;;;;;9.43;6.50;;;19.30;99.90;;;;;;5057033;28;20218;-67
2022/07/22 04:22:59;;;;;;;10.57;6.90;;;19.30;99.90;;;;;;5056849;28;20675;-67
2022/07/22 04:25:25;;;;;;;8.50;6.23;;;19.30;99.90;;;;;;5062790;28;20207;-67
2022/07/22 04:27:52;;;;;;;11.33;6.30;;;19.30;99.90;;;;;;5098245;28;20233;-67
2022/07/22 04:30:19;;;;;;;12.17;6.93;;;19.30;99.90;;;;;;5053653;28;20678;-67
2022/07/22 04:32:45;;;;;;;11.20;7.33;;;19.30;99.90;;;;;;5051052;28;20187;-67
2022/07/22 04:35:12;;;;;;;13.80;7.10;;;19.20;99.90;;;;;;5064299;28;20190;-67
2022/07/22 04:37:39;;;;;;;9.70;6.53;;;19.30;99.90;;;;;;5066538;28;20202;-67
2022/07/22 04:40:06;;;;;;;11.07;6.73;;;19.40;99.90;;;;;;5064863;28;20220;-67
2022/07/22 04:42:34;;;;;;;11.00;6.57;;;19.40;99.90;;;;;;5060516;28;20301;-67
2022/07/22 04:45:00;;;;;;;9.53;6.93;;;19.40;99.90;;;;;;5083706;28;20191;-67
2022/07/22 04:47:27;;;;;;;9.27;6.27;;;19.50;99.90;;;;;;5059256;28;20267;-67
2022/07/22 04:49:54;;;;;;;11.83;6.97;;;19.60;99.90;;;;;;5057785;28;20236;-67
2022/07/22 04:52:21;;;;;;;9.73;6.57;;;19.70;99.90;;;;;;5050453;28;20209;-67
2022/07/22 04:54:47;;;;;;;9.77;6.97;;;19.70;99.90;;;;;;5061779;28;20693;-67
2022/07/22 04:57:14;;;;;;;10.27;6.77;;;19.80;99.90;;;;;;5067824;28;20574;-67
2022/07/22 04:59:41;;;;;;;10.40;7.10;;;20.00;99.90;;;;;;5069880;28;20228;-67
2022/07/22 05:02:08;;;;;;;9.13;6.83;;;20.10;99.90;;;;;;5063656;28;20213;-67
2022/07/22 05:04:35;;;;;;;10.00;7.00;;;20.20;99.90;;;;;;5054047;28;20245;-67
2022/07/22 05:07:02;;;;;;;9.85;7.10;;;20.40;99.90;;;;;;5058545;28;20222;-68
2022/07/22 05:09:29;;;;;;;11.13;7.60;;;20.50;99.90;;;;;;5057487;28;20191;-68
2022/07/22 05:11:57;;;;;;;11.30;7.50;;;20.60;99.90;;;;;;5059589;28;20233;-68
2022/07/22 05:14:24;;;;;;;11.43;7.00;;;20.80;99.90;;;;;;5062331;28;20202;-68
2022/07/22 05:16:50;;;;;;;12.57;7.57;;;20.90;99.90;;;;;;5062174;28;20206;-68
2022/07/22 05:19:17;;;;;;;9.40;6.80;;;21.10;99.90;;;;;;5058697;28;20195;-68
2022/07/22 05:21:44;;;;;;;10.02;7.05;;;21.10;99.90;;;;;;5058763;28;20221;-68
2022/07/22 05:24:11;;;;;;;11.40;7.03;;;21.20;99.90;;;;;;5064251;28;20201;-68
2022/07/22 05:26:37;;;;;;;11.10;7.50;;;21.20;99.90;;;;;;5065854;28;20197;-68
2022/07/22 05:29:04;;;;;;;11.57;7.28;;;21.30;99.90;;;;;;5054625;28;20222;-68
2022/07/22 05:31:31;;;;;;;11.32;7.78;;;21.20;99.90;;;;;;5058373;28;20217;-68
2022/07/22 05:33:58;;;;;;;10.90;7.40;;;21.30;99.90;;;;;;5059929;28;20849;-68
2022/07/22 05:36:25;;;;;;;9.95;7.13;;;21.00;99.90;;;;;;5066384;28;20198;-67
2022/07/22 05:38:51;;;;;;;12.13;7.85;;;21.10;99.90;;;;;;5060719;28;20198;-68
2022/07/22 05:41:18;;;;;;;9.60;7.20;;;21.10;99.90;;;;;;5062275;28;20596;-68
2022/07/22 05:43:45;;;;;;;12.02;7.95;;;21.10;99.90;;;;;;5054916;28;20218;-67
2022/07/22 05:46:11;;;;;;;14.02;8.50;;;21.20;99.90;;;;;;5053492;28;20198;-67
2022/07/22 05:48:38;;;;;;;13.48;7.95;;;21.10;99.90;;;;;;5060499;28;20225;-67
2022/07/22 05:51:11;;;;;;;11.05;7.60;;;21.00;99.90;;;;;;5056675;28;20296;-67
2022/07/22 05:53:39;;;;;;;12.52;8.73;;;21.00;99.90;;;;;;5067341;28;20205;-67
2022/07/22 05:56:06;;;;;;;13.07;8.35;;;20.80;99.90;;;;;;5063995;28;20223;-67
2022/07/22 05:58:33;;;;;;;12.93;7.90;;;20.90;99.90;;;;;;5067333;28;20611;-67
2022/07/22 06:01:00;;;;;;;13.20;8.48;;;21.00;99.90;;;;;;5066556;28;20225;-67
2022/07/22 06:03:26;;;;;;;11.55;7.43;;;21.20;99.90;;;;;;5066732;28;20194;-67
2022/07/22 06:05:53;;;;;;;10.60;7.57;;;21.10;99.90;;;;;;5059936;28;20230;-67
2022/07/22 06:08:20;;;;;;;11.23;7.15;;;21.00;99.90;;;;;;5081459;28;20412;-68
2022/07/22 06:10:47;;;;;;;11.15;7.55;;;20.80;99.90;;;;;;5064432;28;20483;-67
2022/07/22 06:13:14;;;;;;;12.00;7.38;;;20.90;99.90;;;;;;5056189;28;20194;-67
2022/07/22 06:15:41;;;;;;;11.85;8.15;;;21.00;99.90;;;;;;5063049;28;20202;-67
2022/07/22 06:18:08;;;;;;;12.43;7.43;;;21.00;99.90;;;;;;5062380;28;20199;-67
2022/07/22 06:20:34;;;;;;;11.32;7.78;;;21.00;99.90;;;;;;5061224;28;20608;-66
2022/07/22 06:23:01;;;;;;;9.75;7.18;;;21.00;99.90;;;;;;5060393;28;20639;-68
2022/07/22 06:25:28;;;;;;;10.60;7.38;;;21.00;99.90;;;;;;5066388;28;20202;-67
2022/07/22 06:28:08;;;;;;;10.10;6.50;;;21.00;99.90;;;;;;5064433;28;20214;-65
2022/07/22 06:30:35;;;;;;;11.55;6.30;;;21.00;99.90;;;;;;5075001;28;20225;-65
2022/07/22 06:33:02;;;;;;;7.82;5.57;;;20.90;99.90;;;;;;5064291;28;20194;-66
2022/07/22 06:35:28;;;;;;;7.82;5.60;;;21.00;99.90;;;;;;5061386;28;20937;-67
2022/07/22 06:37:55;;;;;;;10.05;6.65;;;21.00;99.90;;;;;;5062199;28;20198;-67
2022/07/22 06:40:33;;;;;;;10.27;6.53;;;21.00;99.90;;;;;;5069847;28;20221;-67
2022/07/22 06:43:00;;;;;;;11.20;6.47;;;21.10;99.90;;;;;;5066879;28;20578;-68
2022/07/22 06:45:27;;;;;;;11.38;6.95;;;21.10;99.90;;;;;;5059730;28;20203;-67
2022/07/22 06:47:54;;;;;;;13.00;6.43;;;21.30;99.90;;;;;;5074573;28;20217;-66
2022/07/22 06:50:22;;;;;;;8.70;6.13;;;21.30;99.90;;;;;;5065352;28;20226;-66
2022/07/22 06:52:50;;;;;;;9.52;6.88;;;21.40;99.90;;;;;;5056321;28;20215;-67
2022/07/22 06:55:16;;;;;;;9.30;6.65;;;21.50;99.90;;;;;;5064103;28;20201;-66
2022/07/22 06:57:43;;;;;;;10.95;6.47;;;21.50;99.90;;;;;;5062818;28;20199;-67
2022/07/22 07:00:11;;;;;;;9.43;6.35;;;21.70;99.90;;;;;;5067363;28;20217;-67
2022/07/22 07:02:37;;;;;;;10.30;6.75;;;21.90;99.90;;;;;;5050318;28;20206;-67
2022/07/22 07:05:04;;;;;;;10.82;6.15;;;22.20;99.90;;;;;;5057521;28;20202;-67
2022/07/22 07:07:31;;;;;;;10.80;6.30;;;22.40;99.90;;;;;;5060352;28;20233;-65
2022/07/22 07:10:03;;;;;;;11.27;6.15;;;22.80;99.90;;;;;;5062148;28;20740;-69
2022/07/22 07:12:35;;;;;;;12.38;5.53;;;23.80;99.90;;;;;;5055439;28;20225;-67
2022/07/22 07:15:04;;;;;;;9.57;5.22;;;24.80;99.90;;;;;;5057889;28;20260;-67
2022/07/22 07:17:53;;;;;;;6.95;5.18;;;25.60;99.90;;;;;;5074738;28;20260;-68
2022/07/22 07:20:20;;;;;;;7.97;5.43;;;26.00;99.90;;;;;;5053988;28;20674;-68
2022/07/22 07:22:47;;;;;;;7.80;4.95;;;26.60;99.90;;;;;;5065570;28;20228;-68
2022/07/22 07:25:14;;;;;;;6.95;4.68;;;26.40;99.90;;;;;;5056261;28;20203;-67
2022/07/22 07:27:49;;;;;;;6.55;5.10;;;26.10;99.90;;;;;;5043344;28;20246;-69
2022/07/22 07:30:16;;;;;;;6.63;4.35;;;26.20;99.90;;;;;;5052120;28;20221;-68
2022/07/22 07:32:43;;;;;;;10.55;4.88;;;26.40;99.90;;;;;;5065827;28;20206;-68
2022/07/22 07:35:10;;;;;;;6.43;4.63;;;26.50;99.90;;;;;;5059288;28;20483;-68
2022/07/22 07:37:37;;;;;;;6.88;4.03;;;26.60;99.90;;;;;;5056573;28;20286;-68
2022/07/22 07:40:05;;;;;;;5.13;4.00;;;26.20;99.90;;;;;;5060114;28;20218;-66
2022/07/22 07:42:32;;;;;;;7.95;4.38;;;25.70;99.90;;;;;;5056395;28;20191;-66
2022/07/22 07:44:59;;;;;;;5.60;4.63;;;25.20;99.90;;;;;;5052086;28;20679;-66
2022/07/22 07:47:25;;;;;;;6.78;5.00;;;25.10;99.90;;;;;;5049220;28;20194;-66
2022/07/22 07:49:52;;;;;;;5.53;3.78;;;24.90;99.90;;;;;;5048607;28;20214;-67
2022/07/22 07:52:19;;;;;;;5.63;4.40;;;25.00;99.90;;;;;;5052266;28;20199;-66
2022/07/22 07:54:46;;;;;;;5.72;4.30;;;25.00;99.90;;;;;;5049387;28;20198;-68
2022/07/22 07:57:33;;;;;;;5.22;4.05;;;24.70;99.90;;;;;;5047136;28;20199;-67
2022/07/22 08:00:01;;;;;;;6.22;4.40;;;24.80;99.90;;;;;;5047167;28;20354;-67
2022/07/22 08:02:28;;;;;;;6.95;5.10;;;25.00;99.90;;;;;;5051521;28;20195;-67
2022/07/22 08:04:55;;;;;;;6.75;4.93;;;25.00;99.90;;;;;;5049534;28;20224;-67
2022/07/22 08:07:26;;;;;;;9.77;5.07;;;24.90;99.90;;;;;;5044516;28;20191;-67
2022/07/22 08:09:53;;;;;;;8.80;5.30;;;24.80;99.90;;;;;;5048210;28;20253;-67
2022/07/22 08:12:40;;;;;;;6.68;4.60;;;25.00;99.90;;;;;;5045808;28;20206;-69
2022/07/22 08:15:07;;;;;;;6.53;4.95;;;25.20;99.90;;;;;;5054936;28;20202;-69
2022/07/22 08:17:34;;;;;;;6.80;5.10;;;25.40;99.90;;;;;;5059375;28;20202;-70
2022/07/22 08:20:03;;;;;;;6.75;4.75;;;25.70;99.90;;;;;;5053671;28;20759;-67
2022/07/22 08:22:30;;;;;;;6.38;4.88;;;25.20;99.90;;;;;;5060961;28;20316;-67
2022/07/22 08:24:57;;;;;;;6.80;4.85;;;24.90;99.90;;;;;;5065009;28;20650;-69
2022/07/22 08:27:24;;;;;;;5.43;4.47;;;24.80;99.90;;;;;;5059650;28;20195;-69
2022/07/22 08:29:50;;;;;;;5.95;4.38;;;24.90;99.90;;;;;;5055157;28;20249;-70
2022/07/22 08:32:18;;;;;;;6.75;5.03;;;25.00;99.90;;;;;;5053390;28;20210;-68
2022/07/22 08:34:44;;;;;;;7.05;5.60;;;24.90;99.90;;;;;;5052093;28;20249;-68
2022/07/22 08:37:11;;;;;;;9.70;6.53;;;24.70;99.90;;;;;;5059154;28;20199;-67
2022/07/22 08:39:38;;;;;;;10.80;5.90;;;24.30;99.90;;;;;;5060782;28;20205;-69
2022/07/22 08:42:05;;;;;;;9.25;5.72;;;24.20;99.90;;;;;;5061544;28;20253;-68
2022/07/22 08:44:33;;;;;;;8.82;5.72;;;24.40;99.90;;;;;;5053096;28;20252;-69
2022/07/22 08:47:00;;;;;;;8.07;5.80;;;24.70;99.90;;;;;;5068497;28;20654;-67
2022/07/22 08:49:47;;;;;;;8.23;6.10;;;24.70;99.90;;;;;;5053612;28;21048;-68
2022/07/22 08:52:14;;;;;;;10.77;6.20;;;24.40;99.90;;;;;;5060686;28;20691;-67
2022/07/22 08:54:41;;;;;;;8.52;6.57;;;24.30;99.90;;;;;;5056031;28;20213;-67
2022/07/22 08:57:07;;;;;;;9.27;7.10;;;24.30;99.90;;;;;;5059704;28;20198;-67
2022/07/22 08:59:49;;;;;;;10.23;6.65;;;24.20;99.90;;;;;;5059256;28;20204;-67
2022/07/22 09:02:16;;;;;;;7.60;6.32;;;24.10;99.90;;;;;;5057519;28;20202;-67
2022/07/22 09:05:04;;;;;;;6.85;5.13;;;24.30;99.90;;;;;;5061766;28;20218;-68
2022/07/22 09:07:50;;;;;;;8.25;6.07;;;24.50;99.90;;;;;;5049110;28;20194;-67
2022/07/22 09:10:19;;;;;;;9.27;6.10;;;24.50;99.90;;;;;;5055992;28;20577;-66
2022/07/22 09:12:59;;;;;;;10.35;6.32;;;24.70;99.90;;;;;;5057590;28;20197;-66
2022/07/22 09:15:28;;;;;;;8.48;6.28;;;25.00;99.90;;;;;;5065029;28;20190;-66
2022/07/22 09:17:56;;;;;;;8.45;6.75;;;25.20;99.90;;;;;;5056165;28;20205;-66
2022/07/22 09:20:30;;;;;;;8.70;6.28;;;25.50;99.90;;;;;;5061075;28;20229;-66
2022/07/22 09:22:57;;;;;;;8.77;6.03;;;25.70;99.90;;;;;;5058122;28;20555;-66
2022/07/22 09:25:30;;;;;;;9.93;6.32;;;26.00;99.90;;;;;;5055178;28;20677;-65
2022/07/22 09:28:20;;;;;;;11.63;6.93;;;26.30;99.90;;;;;;5058010;28;20209;-67
2022/07/22 09:30:52;;;;;;;7.57;6.32;;;26.50;99.90;;;;;;5065595;28;20225;-67
2022/07/22 09:33:21;;;;;;;9.50;6.32;;;26.40;99.90;;;;;;5052400;28;20689;-66
2022/07/22 09:35:49;;;;;;;10.20;7.07;;;26.40;99.90;;;;;;5060806;28;20590;-66
2022/07/22 09:38:26;;;;;;;8.60;6.22;;;26.50;99.90;;;;;;5054497;28;20197;-66
2022/07/22 09:40:53;;;;;;;8.77;6.35;;;26.70;99.90;;;;;;5062333;28;20222;-66
2022/07/22 09:43:20;;;;;;;11.52;7.00;;;26.80;99.90;;;;;;5041925;28;20210;-67
2022/07/22 09:46:01;;;;;;;8.88;6.72;;;26.70;99.90;;;;;;5047756;28;20203;-68
2022/07/22 09:48:28;;;;;;;17.33;7.18;;;26.70;99.90;;;;;;5053271;28;20308;-67
2022/07/22 09:50:56;;;;;;;9.02;6.53;;;26.60;99.90;;;;;;5054394;28;20600;-65
2022/07/22 09:53:27;;;;;;;8.82;6.63;;;26.40;99.90;;;;;;5058146;28;20195;-68
2022/07/22 09:55:54;;;;;;;10.45;6.90;;;26.30;99.90;;;;;;5054311;28;20227;-66
2022/07/22 09:58:21;;;;;;;9.20;6.20;;;26.10;99.90;;;;;;5062428;28;20198;-66
2022/07/22 10:00:49;;;;;;;9.68;6.93;;;26.10;99.90;;;;;;5062062;28;20225;-66
2022/07/22 10:03:36;;;;;;;8.68;6.25;;;26.30;99.90;;;;;;5048700;28;20194;-66
2022/07/22 10:06:05;;;;;;;9.48;6.13;;;26.60;99.90;;;;;;5055757;28;20195;-65
2022/07/22 10:08:32;;;;;;;10.60;6.97;;;26.90;99.90;;;;;;5064061;28;20249;-67
2022/07/22 10:11:06;;;;;;;8.32;6.57;;;27.00;99.90;;;;;;5063090;28;20596;-65
2022/07/22 10:13:34;;;;;;;10.40;6.53;;;26.70;99.90;;;;;;5073867;28;20199;-66
2022/07/22 10:16:01;;;;;;;8.30;7.18;;;26.80;99.90;;;;;;5057592;28;20195;-65
2022/07/22 10:18:30;;;;;;;9.43;6.55;;;26.70;99.90;;;;;;5063040;28;20209;-65
2022/07/22 10:21:08;;;;;;;9.02;6.30;;;26.80;99.90;;;;;;5061104;28;20221;-65
2022/07/22 10:23:36;;;;;;;8.32;5.82;;;26.90;99.90;;;;;;5058247;28;20205;-65
2022/07/22 10:26:04;;;;;;;14.55;6.05;;;27.10;99.90;;;;;;5068166;28;20202;-64
2022/07/22 10:28:33;;;;;;;10.48;6.22;;;27.30;99.90;;;;;;5058633;28;20721;-66
2022/07/22 10:31:18;;;;;;;10.52;6.70;;;27.40;99.90;;;;;;5055695;28;20390;-65
2022/07/22 10:33:49;;;;;;;7.97;5.97;;;27.30;99.90;;;;;;5058919;28;20279;-64
2022/07/22 10:36:34;;;;;;;9.48;6.00;;;27.00;99.90;;;;;;5056620;28;20804;-65
2022/07/22 10:39:08;;;;;;;8.02;6.20;;;27.10;99.90;;;;;;5063346;28;20244;-65
2022/07/22 10:41:37;;;;;;;7.85;5.97;;;27.40;99.90;;;;;;5061513;28;20265;-68
2022/07/22 10:44:05;;;;;;;8.40;6.10;;;27.70;99.90;;;;;;5062845;28;20198;-66
2022/07/22 10:46:49;;;;;;;8.70;6.28;;;28.10;99.90;;;;;;5054721;28;20201;-66
2022/07/22 10:49:18;;;;;;;9.07;6.28;;;28.40;99.90;;;;;;5055008;28;20312;-65
2022/07/22 10:52:08;;;;;;;9.40;5.85;;;28.50;99.90;;;;;;5066142;28;20222;-66
2022/07/22 10:55:17;;;;;;;9.38;6.00;;;28.60;99.90;;;;;;5058339;28;20187;-66
2022/07/22 10:57:44;;;;;;;8.85;5.90;;;28.70;99.90;;;;;;5071659;28;20206;-66
2022/07/22 11:00:11;;;;;;;9.63;5.60;;;28.80;99.90;;;;;;5056905;28;20222;-66
2022/07/22 11:02:38;;;;;;;9.00;6.30;;;29.00;99.90;;;;;;5051840;28;20313;-66
2022/07/22 11:05:07;;;;;;;9.88;5.45;;;29.20;99.90;;;;;;5064090;28;20203;-66
2022/07/22 11:07:41;;;;;;;9.00;5.68;;;29.20;99.90;;;;;;5064922;28;20198;-66
2022/07/22 11:10:12;;;;;;;7.88;6.18;;;29.20;99.90;;;;;;5071170;28;20229;-66
2022/07/22 11:12:46;;;;;;;9.40;6.00;;;29.40;99.90;;;;;;5048312;28;20198;-66
2022/07/22 11:15:13;;;;;;;10.15;6.60;;;29.30;99.90;;;;;;5056861;28;20201;-66
2022/07/22 11:17:41;;;;;;;6.65;5.88;;;29.30;99.90;;;;;;5055765;28;20225;-66
2022/07/22 11:20:10;;;;;;;6.88;5.72;;;29.40;99.90;;;;;;5048548;28;20224;-66
2022/07/22 11:22:37;;;;;;;7.05;5.38;;;29.50;99.90;;;;;;5057242;28;20207;-66
2022/07/22 11:25:07;;;;;;;8.02;5.50;;;29.60;99.90;;;;;;5053540;28;20190;-66
2022/07/22 11:27:34;;;;;;;5.90;4.90;;;29.80;99.90;;;;;;5062986;28;20205;-67
2022/07/22 11:30:04;;;;;;;7.07;5.50;;;29.80;99.90;;;;;;5059188;28;20226;-66
2022/07/22 11:32:32;;;;;;;7.80;5.10;;;29.90;99.90;;;;;;5067287;28;20193;-66
2022/07/22 11:34:59;;;;;;;9.30;5.50;;;29.90;99.90;;;;;;5067447;28;20285;-66
2022/07/22 11:37:27;;;;;;;8.85;5.50;;;29.90;99.90;;;;;;5065305;28;20202;-66
2022/07/22 11:40:06;;;;;;;9.95;5.03;;;30.00;99.90;;;;;;5061773;28;20202;-66
2022/07/22 11:42:33;;;;;;;10.00;5.43;;;30.10;99.90;;;;;;5053290;28;20199;-67
2022/07/22 11:44:59;;;;;;;7.32;4.95;;;30.10;99.90;;;;;;5046625;28;20202;-66
2022/07/22 11:47:26;;;;;;;8.48;6.43;;;30.10;99.90;;;;;;5055448;28;20213;-66
2022/07/22 11:49:53;;;;;;;7.65;5.20;;;30.40;99.90;;;;;;5049474;28;20642;-66
2022/07/22 11:52:20;;;;;;;7.63;5.20;;;30.40;99.90;;;;;;5056078;28;20472;-67
2022/07/22 11:54:47;;;;;;;7.15;4.85;;;30.60;99.90;;;;;;5052011;28;20206;-67
2022/07/22 11:57:14;;;;;;;7.13;4.75;;;30.50;99.90;;;;;;5055418;28;20190;-67
2022/07/22 11:59:41;;;;;;;8.18;5.35;;;30.50;99.90;;;;;;5050195;28;20199;-67
2022/07/22 12:02:11;;;;;;;9.27;5.47;;;30.50;99.90;;;;;;5054343;28;20654;-67
2022/07/22 12:04:38;;;;;;;7.60;5.38;;;30.60;99.90;;;;;;5069784;28;20201;-68
2022/07/22 12:07:06;;;;;;;10.05;5.25;;;30.30;99.90;;;;;;5058101;28;20306;-69
2022/07/22 12:09:35;;;;;;;7.82;5.30;;;30.10;99.90;;;;;;5059833;28;20226;-67
2022/07/22 12:12:02;;;;;;;6.18;5.05;;;30.30;99.90;;;;;;5061759;28;20194;-68
2022/07/22 12:14:31;;;;;;;7.70;5.13;;;30.50;99.90;;;;;;5056556;28;20194;-68
2022/07/22 12:17:10;;;;;;;5.70;5.10;;;30.60;99.90;;;;;;5056301;28;20294;-67
2022/07/22 12:19:39;;;;;;;6.35;5.07;;;30.70;99.90;;;;;;5058518;28;20201;-68
2022/07/22 12:22:09;;;;;;;6.10;4.53;;;30.80;99.90;;;;;;5069700;28;20599;-68
2022/07/22 12:24:41;;;;;;;5.63;3.97;;;30.90;99.90;;;;;;5069268;28;20204;-68
2022/07/22 12:27:10;;;;;;;6.80;4.00;;;30.90;99.90;;;;;;5057267;28;20247;-68
2022/07/22 12:29:37;;;;;;;9.07;4.15;;;31.00;99.90;;;;;;5055095;28;20684;-66
2022/07/22 12:32:08;;;;;;;6.20;4.30;;;31.10;99.90;;;;;;5058501;28;20195;-69
2022/07/22 12:34:41;;;;;;;4.65;4.07;;;31.40;99.90;;;;;;5064377;28;20200;-67
2022/07/22 12:37:14;;;;;;;6.25;4.25;;;31.50;99.60;;;;;;5055015;28;20202;-65
2022/07/22 12:40:06;;;;;;;5.32;4.65;;;31.70;99.90;;;;;;5062229;28;20245;-67
2022/07/22 12:42:34;;;;;;;6.80;5.15;;;31.80;99.80;;;;;;5081812;28;20617;-67
2022/07/22 12:45:05;;;;;;;7.63;4.40;;;31.80;99.30;;;;;;5057509;28;20201;-67
2022/07/22 12:47:45;;;;;;;7.88;4.95;;;31.80;99.40;;;;;;5059165;28;20288;-67
2022/07/22 12:50:27;;;;;;;7.22;5.20;;;32.00;99.10;;;;;;5058868;28;20292;-66